Time;durP1;ratioP1;P1;durP2;ratioP2;P2;SDS_P1;SDS_P2;PMS_P1;PMS_P2;Temp;Humidity;BMP_temperature;BMP_pressure;BME280_temperature;BME280_humidity;BME280_pressure;Samples;Min_cycle;Max_cycle;Signal;HPM_P1;HPM_P2
2024/01/21 00:00:34;;;;;;;7.53;6.73;;;;;;;-0.13;52.42;99965.31;6732559;29;20299;-81
2024/01/21 00:03:55;;;;;;;8.97;7.27;;;;;;;-0.66;53.66;99970.06;6734839;29;20696;-81
2024/01/21 00:07:17;;;;;;;9.57;7.40;;;;;;;-0.52;53.09;99969.97;6734067;29;20299;-82
2024/01/21 00:10:38;;;;;;;10.93;7.03;;;;;;;-0.55;54.27;99977.28;6734571;29;20362;-81
2024/01/21 00:14:00;;;;;;;8.90;6.97;;;;;;;-0.42;54.26;99976.28;6729997;29;20231;-81
2024/01/21 00:17:23;;;;;;;9.07;6.63;;;;;;;-0.31;54.15;99957.00;6734109;29;20252;-81
2024/01/21 00:20:44;;;;;;;10.13;7.93;;;;;;;-0.97;54.34;99972.28;6734237;29;20299;-82
2024/01/21 00:24:06;;;;;;;10.13;7.03;;;;;;;-0.70;55.29;99970.41;6735436;29;20223;-82
2024/01/21 00:27:28;;;;;;;9.33;7.63;;;;;;;-0.80;55.21;99975.47;6750655;29;20246;-81
2024/01/21 00:30:49;;;;;;;8.40;7.60;;;;;;;-0.47;54.25;99967.84;6739559;29;20216;-83
2024/01/21 00:34:12;;;;;;;11.30;8.33;;;;;;;-0.50;54.79;99975.13;6751348;29;20255;-82
2024/01/21 00:37:33;;;;;;;8.57;7.67;;;;;;;-0.55;54.22;99972.81;6735119;29;20730;-80
2024/01/21 00:40:55;;;;;;;8.20;7.23;;;;;;;-0.25;54.31;99969.81;6738657;29;20361;-81
2024/01/21 00:44:18;;;;;;;7.67;6.73;;;;;;;0.10;52.55;99951.25;6737220;29;20689;-81
2024/01/21 00:47:40;;;;;;;7.47;6.77;;;;;;;0.33;51.48;99954.88;6737955;29;20247;-82
2024/01/21 00:51:03;;;;;;;10.90;7.43;;;;;;;0.19;51.86;99958.53;6737731;29;20240;-81
2024/01/21 00:54:24;;;;;;;7.47;6.67;;;;;;;0.10;51.64;99956.56;6739642;29;20236;-81
2024/01/21 00:57:48;;;;;;;7.80;6.97;;;;;;;-0.28;51.68;99960.28;6739271;29;20236;-82
2024/01/21 01:01:09;;;;;;;7.77;6.53;;;;;;;-0.33;52.30;99983.59;6740775;29;20862;-82
2024/01/21 01:04:31;;;;;;;11.37;7.30;;;;;;;-0.75;52.77;99988.41;6737582;29;20240;-81
2024/01/21 01:07:54;;;;;;;11.17;6.80;;;;;;;-0.79;53.07;99971.00;6733831;29;20224;-80
2024/01/21 01:11:16;;;;;;;9.70;7.30;;;;;;;-0.39;53.17;99978.75;6734121;29;20300;-81
2024/01/21 01:14:39;;;;;;;10.77;8.23;;;;;;;-0.15;52.90;99963.75;6733923;29;20239;-81
2024/01/21 01:18:00;;;;;;;7.73;6.90;;;;;;;-0.37;51.75;99968.03;6734056;29;20232;-82
2024/01/21 01:21:22;;;;;;;7.17;6.47;;;;;;;-0.80;53.22;99980.78;6736079;29;20216;-82
2024/01/21 01:24:45;;;;;;;9.20;7.13;;;;;;;-0.69;53.08;99980.88;6736464;29;20675;-81
2024/01/21 01:28:06;;;;;;;9.10;7.57;;;;;;;-0.97;53.62;99982.88;6736229;29;20227;-82
2024/01/21 01:31:28;;;;;;;7.57;6.87;;;;;;;-0.66;53.03;99967.41;6736311;29;20256;-81
2024/01/21 01:34:52;;;;;;;8.03;7.27;;;;;;;-0.74;53.56;99953.88;6736057;29;20276;-81
2024/01/21 01:38:13;;;;;;;10.03;6.87;;;;;;;-1.05;53.61;99959.59;6736420;29;20236;-81
2024/01/21 01:41:36;;;;;;;11.27;7.33;;;;;;;-0.71;53.47;99974.00;6737572;29;20284;-82
2024/01/21 01:44:58;;;;;;;9.87;7.67;;;;;;;-0.64;53.08;99977.91;6737488;29;20239;-81
2024/01/21 01:48:23;;;;;;;11.50;7.03;;;;;;;-0.52;52.30;99962.03;6733417;29;20319;-81
2024/01/21 01:51:45;;;;;;;8.93;6.63;;;;;;;-0.90;52.14;99955.06;6732509;29;20301;-81
2024/01/21 01:55:07;;;;;;;9.17;6.63;;;;;;;-1.00;53.08;99970.72;6731037;29;20315;-82
2024/01/21 01:58:30;;;;;;;9.60;6.80;;;;;;;-1.05;53.77;99958.75;6730619;29;20232;-81
2024/01/21 02:01:52;;;;;;;7.20;5.97;;;;;;;-0.59;53.14;99958.09;6731487;29;20207;-81
2024/01/21 02:05:13;;;;;;;10.90;6.70;;;;;;;-0.49;53.00;99948.53;6731331;29;20212;-81
2024/01/21 02:08:35;;;;;;;6.60;5.93;;;;;;;-0.50;52.35;99944.22;6731210;29;20315;-82
2024/01/21 02:11:57;;;;;;;7.10;6.40;;;;;;;-1.19;52.59;99954.38;6732347;29;20269;-81
2024/01/21 02:15:20;;;;;;;7.43;6.40;;;;;;;-1.11;54.27;99948.56;6735021;29;20224;-81
2024/01/21 02:18:44;;;;;;;9.47;6.83;;;;;;;-0.90;53.59;99937.34;6737464;29;20290;-82
2024/01/21 02:22:06;;;;;;;9.13;6.97;;;;;;;-0.69;53.35;99913.84;6740253;29;20235;-82
2024/01/21 02:25:29;;;;;;;7.40;6.30;;;;;;;-0.66;52.46;99922.41;6740562;29;20328;-81
2024/01/21 02:28:53;;;;;;;7.83;6.70;;;;;;;-0.70;52.33;99905.06;6742166;29;20317;-82
2024/01/21 02:32:15;;;;;;;7.53;6.37;;;;;;;-0.99;53.76;99902.75;6732634;29;20237;-82
2024/01/21 02:35:37;;;;;;;8.33;6.23;;;;;;;-0.52;53.17;99890.50;6740555;29;20291;-82
2024/01/21 02:38:58;;;;;;;6.90;5.97;;;;;;;-0.79;52.97;99888.94;6740014;29;20229;-81
2024/01/21 02:42:21;;;;;;;6.13;5.10;;;;;;;-1.06;53.70;99898.84;6740108;29;20305;-82
2024/01/21 02:45:43;;;;;;;7.77;5.80;;;;;;;-0.66;53.92;99876.56;6741580;29;20208;-82
2024/01/21 02:49:04;;;;;;;6.53;4.80;;;;;;;-0.48;53.40;99886.66;6738775;29;20580;-82
2024/01/21 02:52:26;;;;;;;7.03;5.57;;;;;;;-0.53;53.11;99874.72;6739493;29;20254;-81
2024/01/21 02:55:47;;;;;;;6.57;5.90;;;;;;;-0.39;53.12;99898.41;6738839;29;20231;-82
2024/01/21 02:59:10;;;;;;;6.50;5.77;;;;;;;-0.40;53.24;99913.47;6739092;29;20826;-81
2024/01/21 03:02:32;;;;;;;7.07;6.07;;;;;;;-0.50;53.08;99911.56;6738758;29;20259;-82
2024/01/21 03:05:54;;;;;;;6.30;5.70;;;;;;;-0.15;52.02;99902.78;6741341;29;20220;-82
2024/01/21 03:09:15;;;;;;;6.33;5.67;;;;;;;-1.21;53.28;99911.31;6738207;29;20703;-82
2024/01/21 03:12:37;;;;;;;6.47;5.43;;;;;;;-0.58;52.33;99908.63;6738585;29;20669;-81
2024/01/21 03:16:00;;;;;;;5.23;4.77;;;;;;;-0.92;52.63;99904.00;6737896;29;20228;-82
2024/01/21 03:19:22;;;;;;;8.87;5.70;;;;;;;-0.99;53.64;99902.75;6738857;29;20347;-82
2024/01/21 03:22:43;;;;;;;6.03;5.10;;;;;;;-1.18;54.11;99894.38;6737711;29;20244;-82
2024/01/21 03:26:05;;;;;;;5.97;5.20;;;;;;;-1.04;54.35;99873.97;6738894;29;20223;-81
2024/01/21 03:29:26;;;;;;;6.00;5.40;;;;;;;-0.84;53.32;99846.94;6739167;29;20312;-82
2024/01/21 03:32:49;;;;;;;6.30;5.70;;;;;;;-0.65;52.28;99863.19;6738199;29;20610;-81
2024/01/21 03:36:11;;;;;;;5.97;5.37;;;;;;;-0.67;52.33;99867.75;6733968;29;20707;-81
2024/01/21 03:39:33;;;;;;;6.20;5.57;;;;;;;-0.47;52.69;99871.63;6734883;29;20238;-81
2024/01/21 03:42:54;;;;;;;7.40;6.03;;;;;;;-0.24;53.16;99881.41;6737896;29;20276;-81
2024/01/21 03:46:16;;;;;;;8.53;6.00;;;;;;;-0.40;53.30;99868.44;6733408;29;20271;-81
2024/01/21 03:49:39;;;;;;;7.40;6.30;;;;;;;-0.35;52.38;99862.81;6734456;29;20994;-82
2024/01/21 03:53:00;;;;;;;8.97;6.80;;;;;;;-0.08;52.47;99858.16;6734711;29;20299;-82
2024/01/21 03:56:22;;;;;;;7.70;6.93;;;;;;;0.27;51.57;99871.31;6734589;29;20723;-82
2024/01/21 03:59:43;;;;;;;7.00;6.30;;;;;;;0.01;51.78;99875.03;6734977;29;20380;-81
2024/01/21 04:03:05;;;;;;;5.80;5.30;;;;;;;-0.28;51.63;99847.19;6733068;29;20696;-82
2024/01/21 04:06:28;;;;;;;7.70;5.47;;;;;;;-0.50;52.29;99871.84;6733495;29;20279;-82
2024/01/21 04:09:49;;;;;;;7.50;6.57;;;;;;;-0.55;52.87;99866.88;6734323;29;20323;-81
2024/01/21 04:13:11;;;;;;;8.00;6.40;;;;;;;-0.58;52.87;99868.91;6734679;29;20364;-81
2024/01/21 04:16:32;;;;;;;7.20;6.30;;;;;;;-0.37;53.07;99865.56;6734366;29;20330;-81
2024/01/21 04:19:54;;;;;;;7.17;6.47;;;;;;;-0.41;52.67;99826.16;6734879;29;20376;-81
2024/01/21 04:23:17;;;;;;;9.87;7.00;;;;;;;0.02;52.22;99849.38;6740017;29;20276;-82
2024/01/21 04:26:38;;;;;;;9.37;7.73;;;;;;;0.14;52.55;99822.78;6733757;29;20216;-81
2024/01/21 04:30:00;;;;;;;7.93;6.73;;;;;;;0.07;51.93;99823.38;6745947;29;20239;-81
2024/01/21 04:33:22;;;;;;;6.93;6.13;;;;;;;0.28;51.53;99832.38;6736243;29;20205;-81
2024/01/21 04:36:44;;;;;;;7.40;6.60;;;;;;;0.04;51.47;99824.47;6734987;29;20361;-82
2024/01/21 04:40:08;;;;;;;7.90;7.20;;;;;;;0.01;51.91;99829.16;6734356;29;20735;-81
2024/01/21 04:43:30;;;;;;;11.40;7.53;;;;;;;0.00;52.53;99836.25;6733463;29;20360;-81
2024/01/21 04:46:52;;;;;;;11.43;7.17;;;;;;;0.01;53.01;99839.75;6729359;29;20212;-81
2024/01/21 04:50:13;;;;;;;9.63;7.47;;;;;;;0.29;52.06;99811.03;6726117;29;21574;-81
2024/01/21 04:53:37;;;;;;;8.87;8.00;;;;;;;0.36;51.44;99822.03;6732540;29;20219;-81
2024/01/21 04:57:00;;;;;;;9.40;7.30;;;;;;;0.53;51.66;99811.81;6734381;29;20234;-80
2024/01/21 05:00:22;;;;;;;11.07;8.30;;;;;;;0.44;51.10;99809.88;6728122;29;20318;-81
2024/01/21 05:03:43;;;;;;;8.70;6.77;;;;;;;0.60;50.46;99828.94;6735690;29;20239;-81
2024/01/21 05:07:05;;;;;;;11.07;6.97;;;;;;;0.51;50.52;99821.72;6716814;29;20209;-80
2024/01/21 05:10:26;;;;;;;8.60;7.17;;;;;;;0.53;50.37;99826.91;6733492;29;20204;-81
2024/01/21 05:13:49;;;;;;;9.10;7.27;;;;;;;0.31;51.29;99830.31;6733610;29;20295;-81
2024/01/21 05:17:11;;;;;;;8.70;7.40;;;;;;;0.26;51.87;99829.00;6730362;29;20296;-80
2024/01/21 05:20:32;;;;;;;9.20;7.63;;;;;;;-0.03;51.82;99841.78;6736767;29;20208;-81
2024/01/21 05:23:54;;;;;;;10.50;7.47;;;;;;;-0.36;53.20;99853.16;6734537;29;20223;-81
2024/01/21 05:27:15;;;;;;;9.43;8.47;;;;;;;-0.22;53.00;99846.72;6732409;29;20212;-81
2024/01/21 05:30:38;;;;;;;9.00;8.00;;;;;;;-0.29;53.79;99846.47;6732839;29;20208;-81
2024/01/21 05:34:00;;;;;;;9.70;8.27;;;;;;;-0.32;53.32;99849.31;6732968;29;20361;-81
2024/01/21 05:37:21;;;;;;;13.37;7.67;;;;;;;-0.51;53.74;99867.50;6731019;29;20327;-81
2024/01/21 05:40:43;;;;;;;11.03;7.97;;;;;;;-0.29;53.85;99878.25;6732420;29;20216;-81
2024/01/21 05:44:05;;;;;;;11.43;7.83;;;;;;;0.11;53.17;99883.16;6731522;29;20348;-79
2024/01/21 05:47:27;;;;;;;11.20;7.97;;;;;;;0.34;52.69;99882.28;6731735;29;20273;-80
2024/01/21 05:50:49;;;;;;;9.77;8.27;;;;;;;0.20;51.98;99885.97;6737959;29;20303;-81
2024/01/21 05:54:10;;;;;;;9.63;8.00;;;;;;;-0.66;53.21;99874.75;6738440;29;20769;-80
2024/01/21 05:57:32;;;;;;;11.40;8.70;;;;;;;-0.43;53.72;99866.00;6735937;29;20355;-81
2024/01/21 06:00:54;;;;;;;9.97;8.10;;;;;;;-0.24;53.22;99887.53;6736895;29;20295;-80
2024/01/21 06:04:17;;;;;;;9.77;8.40;;;;;;;0.02;52.25;99871.41;6737651;29;20359;-81
2024/01/21 06:07:38;;;;;;;14.23;7.77;;;;;;;-0.16;52.71;99885.19;6737062;29;20276;-80
2024/01/21 06:11:00;;;;;;;10.97;7.70;;;;;;;-0.11;53.04;99888.38;6739888;29;20268;-80
2024/01/21 06:14:21;;;;;;;10.30;8.20;;;;;;;-0.57;53.91;99903.22;6733778;29;20302;-81
2024/01/21 06:17:43;;;;;;;10.97;8.77;;;;;;;-0.79;54.75;99907.47;6733439;29;20323;-81
2024/01/21 06:21:06;;;;;;;10.27;9.13;;;;;;;-0.69;54.75;99911.19;6738169;29;20308;-81
2024/01/21 06:24:27;;;;;;;13.53;9.53;;;;;;;-0.84;54.90;99929.00;6740819;29;20261;-81
2024/01/21 06:27:49;;;;;;;11.40;9.57;;;;;;;-0.53;55.15;99912.63;6739328;29;20316;-81
2024/01/21 06:31:10;;;;;;;12.60;9.67;;;;;;;-0.33;54.51;99925.31;6738940;29;20211;-81
2024/01/21 06:34:32;;;;;;;15.50;9.97;;;;;;;-0.03;52.32;99925.75;6738343;29;20765;-82
2024/01/21 06:37:54;;;;;;;13.27;10.97;;;;;;;-0.70;54.73;99939.47;6738916;29;20273;-81
2024/01/21 06:41:16;;;;;;;13.43;9.90;;;;;;;-0.32;53.88;99934.94;6739190;29;20240;-80
2024/01/21 06:44:38;;;;;;;14.83;10.60;;;;;;;-0.38;54.69;99923.94;6737264;29;20210;-81
2024/01/21 06:47:59;;;;;;;12.40;9.73;;;;;;;-0.12;52.64;99919.31;6734244;29;20236;-80
2024/01/21 06:51:31;;;;;;;16.20;9.57;;;;;;;-0.09;52.22;99918.25;6737218;29;20575;-81
2024/01/21 06:54:55;;;;;;;12.17;10.60;;;;;;;-0.34;53.16;99930.72;6737284;29;20208;-80
2024/01/21 06:58:16;;;;;;;14.80;11.60;;;;;;;-0.25;53.75;99924.78;6738312;29;20243;-79
2024/01/21 07:01:38;;;;;;;18.43;11.93;;;;;;;-0.72;55.61;99922.84;6737421;29;20204;-81
2024/01/21 07:04:59;;;;;;;18.53;12.33;;;;;;;-0.57;55.20;99912.97;6737466;29;20211;-81
2024/01/21 07:08:21;;;;;;;14.10;10.63;;;;;;;-0.02;54.34;99927.44;6741525;29;20255;-81
2024/01/21 07:11:43;;;;;;;14.03;11.13;;;;;;;0.10;53.49;99903.53;6743495;29;20296;-81
2024/01/21 07:15:06;;;;;;;16.03;11.33;;;;;;;0.32;52.42;99918.69;6737133;29;20240;-81
2024/01/21 07:18:27;;;;;;;12.77;10.00;;;;;;;0.50;52.27;99894.31;6740192;29;20274;-82
2024/01/21 07:21:49;;;;;;;15.47;10.00;;;;;;;0.27;52.99;99876.63;6742749;29;20270;-81
2024/01/21 07:25:14;;;;;;;13.03;10.17;;;;;;;0.57;51.79;99899.97;6741584;29;20305;-81
2024/01/21 07:28:37;;;;;;;15.27;9.83;;;;;;;0.45;52.70;99896.44;6740553;29;20279;-79
2024/01/21 07:31:58;;;;;;;17.07;11.30;;;;;;;0.50;52.06;99890.78;6734158;29;20283;-80
2024/01/21 07:35:20;;;;;;;14.10;11.10;;;;;;;0.49;52.21;99891.75;6739440;29;20323;-80
2024/01/21 07:38:41;;;;;;;17.47;12.17;;;;;;;0.60;51.98;99920.97;6730799;29;20713;-83
2024/01/21 07:42:03;;;;;;;19.60;12.83;;;;;;;0.28;53.00;99907.47;6732448;29;20680;-81
2024/01/21 07:45:26;;;;;;;18.23;12.13;;;;;;;0.24;53.36;99908.66;6732089;29;20749;-81
2024/01/21 07:48:48;;;;;;;18.37;13.27;;;;;;;0.31;53.34;99922.31;6721720;29;20650;-83
2024/01/21 07:52:10;;;;;;;18.07;13.00;;;;;;;0.67;52.54;99916.91;6730946;29;20211;-81
2024/01/21 07:55:31;;;;;;;17.30;12.47;;;;;;;0.39;53.39;99917.28;6728773;29;20225;-81
2024/01/21 07:58:53;;;;;;;16.77;11.97;;;;;;;0.70;53.73;99921.97;6730422;29;20235;-80
2024/01/21 08:02:16;;;;;;;17.00;12.97;;;;;;;1.12;51.88;99908.91;6732811;29;20592;-82
2024/01/21 08:05:37;;;;;;;15.87;11.83;;;;;;;0.93;50.28;99889.19;6731421;29;20349;-81
2024/01/21 08:08:59;;;;;;;15.40;11.87;;;;;;;1.28;51.82;99906.75;6739586;29;20248;-81
2024/01/21 08:12:20;;;;;;;25.17;15.10;;;;;;;1.49;50.63;99893.56;6731494;29;20212;-81
2024/01/21 08:15:42;;;;;;;19.10;12.90;;;;;;;1.16;50.96;99888.25;6733031;29;20276;-81
2024/01/21 08:19:05;;;;;;;21.30;12.70;;;;;;;1.39;50.91;99888.16;6732200;29;20376;-81
2024/01/21 08:22:26;;;;;;;16.30;11.67;;;;;;;1.05;51.89;99880.28;6733216;29;20231;-81
2024/01/21 08:25:48;;;;;;;16.60;11.17;;;;;;;1.36;53.07;99898.19;6732261;29;20248;-81
2024/01/21 08:29:10;;;;;;;17.33;12.03;;;;;;;2.17;51.29;99896.81;6732465;29;20265;-80
2024/01/21 08:32:31;;;;;;;17.57;11.60;;;;;;;2.46;51.04;99904.09;6735412;29;20292;-81
2024/01/21 08:35:54;;;;;;;17.17;10.70;;;;;;;2.79;49.66;99903.91;6739003;29;20298;-81
2024/01/21 08:39:15;;;;;;;17.60;12.57;;;;;;;2.32;50.79;99911.53;6731861;29;20717;-81
2024/01/21 08:42:37;;;;;;;18.83;12.70;;;;;;;2.03;51.76;99937.00;6732450;29;20364;-80
2024/01/21 08:45:58;;;;;;;14.57;12.17;;;;;;;2.36;51.18;99918.28;6736727;29;20827;-80
2024/01/21 08:49:20;;;;;;;18.97;11.87;;;;;;;2.98;49.87;99930.69;6730896;29;20236;-79
2024/01/21 08:52:43;;;;;;;17.77;11.83;;;;;;;3.35;49.91;99923.88;6731815;29;20212;-80
2024/01/21 08:56:05;;;;;;;18.10;12.43;;;;;;;3.20;49.51;99922.53;6731806;29;20263;-80
2024/01/21 08:59:27;;;;;;;15.50;12.03;;;;;;;3.70;48.99;99918.13;6731891;29;20275;-80
2024/01/21 09:02:48;;;;;;;15.40;11.80;;;;;;;3.58;48.61;99903.22;6731738;29;20264;-80
2024/01/21 09:06:10;;;;;;;16.37;12.13;;;;;;;3.80;49.01;99914.53;6729723;29;20227;-80
2024/01/21 09:09:33;;;;;;;13.43;10.90;;;;;;;4.20;47.90;99904.63;6739158;29;20290;-80
2024/01/21 09:12:54;;;;;;;18.43;11.43;;;;;;;3.95;47.77;99926.50;6732430;29;20658;-80
2024/01/21 09:16:16;;;;;;;15.67;11.27;;;;;;;3.78;47.96;99921.00;6731721;29;21546;-81
2024/01/21 09:19:38;;;;;;;14.20;11.30;;;;;;;4.28;47.51;99919.97;6732627;29;20723;-80
2024/01/21 09:22:59;;;;;;;14.57;11.40;;;;;;;4.53;47.34;99914.06;6731345;29;20216;-80
2024/01/21 09:26:22;;;;;;;14.90;10.83;;;;;;;4.60;46.57;99912.56;6735660;29;20239;-79
2024/01/21 09:29:44;;;;;;;12.97;10.60;;;;;;;4.62;46.77;99921.25;6737202;29;20332;-84
2024/01/21 09:33:05;;;;;;;10.83;9.47;;;;;;;4.80;46.56;99919.56;6738072;29;20208;-80
2024/01/21 09:36:27;;;;;;;13.10;9.03;;;;;;;4.73;46.50;99921.94;6738221;29;20263;-81
2024/01/21 09:39:48;;;;;;;15.43;10.07;;;;;;;4.68;46.85;99894.84;6740605;29;20576;-82
2024/01/21 09:43:13;;;;;;;11.77;9.00;;;;;;;5.10;44.97;99911.38;6737958;29;20248;-81
2024/01/21 09:46:34;;;;;;;12.37;8.53;;;;;;;5.17;44.40;99901.78;6738755;29;20261;-80
2024/01/21 09:49:56;;;;;;;9.87;7.53;;;;;;;4.91;44.37;99890.03;6743142;29;20515;-81
2024/01/21 09:53:18;;;;;;;9.43;7.67;;;;;;;4.84;45.04;99888.91;6735834;29;20267;-81
2024/01/21 09:56:40;;;;;;;9.97;7.63;;;;;;;5.12;44.14;99909.41;6737312;29;20327;-80
2024/01/21 10:00:05;;;;;;;11.00;8.23;;;;;;;5.16;43.13;99914.31;6737951;29;20254;-80
2024/01/21 10:03:26;;;;;;;9.57;7.50;;;;;;;4.97;43.81;99918.84;6737593;29;20206;-81
2024/01/21 10:06:50;;;;;;;9.47;7.40;;;;;;;5.15;43.53;99923.34;6736274;29;20236;-82
2024/01/21 10:10:13;;;;;;;7.90;6.73;;;;;;;5.65;43.01;99903.31;6741819;29;20235;-83
2024/01/21 10:13:38;;;;;;;10.07;7.37;;;;;;;5.99;42.47;99915.16;6731597;29;20213;-81
2024/01/21 10:17:02;;;;;;;8.87;7.13;;;;;;;6.19;42.61;99891.78;6731668;29;20262;-82
2024/01/21 10:20:23;;;;;;;14.00;10.00;;;;;;;5.03;45.81;99905.78;6735774;29;20224;-83
2024/01/21 10:23:45;;;;;;;10.13;7.60;;;;;;;5.82;42.98;99913.25;6733837;29;20691;-83
2024/01/21 10:27:07;;;;;;;9.07;7.63;;;;;;;6.16;42.94;99890.25;6729087;29;20276;-82
2024/01/21 10:30:28;;;;;;;10.00;6.90;;;;;;;6.26;42.86;99909.75;6741948;29;20204;-84
2024/01/21 10:33:51;;;;;;;9.53;7.90;;;;;;;6.65;42.71;99927.25;6739083;29;20284;-84
2024/01/21 10:37:15;;;;;;;9.10;7.93;;;;;;;6.98;42.06;99931.06;6734053;29;20232;-83
2024/01/21 10:40:43;;;;;;;13.27;9.53;;;;;;;7.14;43.60;99937.38;6735789;29;20217;-84
2024/01/21 10:44:05;;;;;;;13.10;10.10;;;;;;;7.27;43.44;99929.78;6736872;29;20697;-84
2024/01/21 10:47:27;;;;;;;14.80;10.27;;;;;;;7.54;42.72;99924.25;6734201;29;20607;-84
2024/01/21 10:50:51;;;;;;;14.77;10.47;;;;;;;7.35;43.99;99894.94;6732783;29;20219;-82
2024/01/21 10:54:13;;;;;;;12.80;9.67;;;;;;;7.42;41.72;99866.47;6734486;29;20226;-82
2024/01/21 10:57:35;;;;;;;13.63;9.77;;;;;;;6.11;44.67;99915.78;6735466;29;20410;-81
2024/01/21 11:01:00;;;;;;;11.63;9.33;;;;;;;6.43;44.79;99902.75;6736429;29;20234;-83
2024/01/21 11:04:22;;;;;;;11.37;9.37;;;;;;;6.89;44.30;99895.28;6725455;29;20204;-83
2024/01/21 11:07:45;;;;;;;10.17;8.93;;;;;;;7.28;43.62;99896.59;6737184;29;20854;-82
2024/01/21 11:11:20;;;;;;;16.10;12.47;;;;;;;7.37;43.97;99903.69;6733433;29;20308;-82
2024/01/21 11:14:42;;;;;;;16.67;13.50;;;;;;;7.40;43.69;99892.66;6733090;29;20235;-81
2024/01/21 11:18:11;;;;;;;20.13;14.67;;;;;;;7.09;43.34;99914.72;6732525;29;20247;-82
2024/01/21 11:21:34;;;;;;;12.97;11.47;;;;;;;8.09;42.32;99905.88;6733190;29;20219;-83
2024/01/21 11:24:57;;;;;;;19.63;14.27;;;;;;;7.85;42.80;99898.56;6733275;29;20252;-84
2024/01/21 11:28:27;;;;;;;13.70;11.50;;;;;;;7.93;42.38;99938.91;6728210;29;20286;-85
2024/01/21 11:31:49;;;;;;;16.37;10.27;;;;;;;7.81;42.69;99950.06;6732953;29;20220;-84
2024/01/21 11:35:14;;;;;;;14.13;10.27;;;;;;;8.21;42.06;99934.16;6743322;29;20688;-84
2024/01/21 11:38:36;;;;;;;14.33;10.77;;;;;;;8.27;41.99;99938.88;6736180;29;20278;-84
2024/01/21 11:41:59;;;;;;;12.67;10.17;;;;;;;7.29;43.38;99980.56;6735386;29;20290;-83
2024/01/21 11:45:21;;;;;;;14.77;10.87;;;;;;;7.78;43.37;100001.41;6735205;29;20223;-84
2024/01/21 11:48:42;;;;;;;13.73;10.33;;;;;;;8.30;42.40;99982.38;6729876;29;20766;-84
2024/01/21 11:52:05;;;;;;;16.37;11.17;;;;;;;7.75;42.99;99970.34;6732486;29;20281;-83
2024/01/21 11:55:27;;;;;;;17.47;10.30;;;;;;;7.62;43.85;99975.31;6734451;29;20215;-83
2024/01/21 11:58:50;;;;;;;14.77;10.80;;;;;;;8.48;43.34;99974.25;6734758;29;20325;-83
2024/01/21 12:02:11;;;;;;;14.17;10.97;;;;;;;8.63;41.85;99968.06;6734934;29;20220;-82
2024/01/21 12:05:33;;;;;;;19.67;10.13;;;;;;;8.82;42.98;99954.31;6732861;29;20309;-83
2024/01/21 12:08:55;;;;;;;11.90;9.73;;;;;;;9.04;41.13;99937.53;6733243;29;20257;-83
2024/01/21 12:12:17;;;;;;;19.63;10.87;;;;;;;9.15;42.52;99943.38;6725678;29;20213;-84
2024/01/21 12:15:40;;;;;;;15.13;10.33;;;;;;;9.16;40.71;99933.47;6729602;29;20286;-83
2024/01/21 12:19:02;;;;;;;12.60;8.97;;;;;;;9.26;41.00;99917.97;6733599;29;20814;-83
2024/01/21 12:22:36;;;;;;;11.00;8.67;;;;;;;10.13;39.52;99887.31;6732985;29;20309;-83
2024/01/21 12:25:58;;;;;;;11.60;8.20;;;;;;;10.64;38.60;99894.72;6733207;29;20334;-83
2024/01/21 12:29:20;;;;;;;11.33;7.00;;;;;;;11.24;36.70;99871.31;6730512;29;20275;-83
2024/01/21 12:32:44;;;;;;;9.53;5.30;;;;;;;11.45;35.33;99882.22;6732442;29;20275;-83
2024/01/21 12:36:06;;;;;;;7.07;4.50;;;;;;;10.93;33.67;99845.47;6733799;29;20687;-83
2024/01/21 12:39:27;;;;;;;5.10;4.60;;;;;;;10.65;34.21;99855.13;6729052;29;20252;-83
2024/01/21 12:42:49;;;;;;;5.90;5.03;;;;;;;10.31;35.12;99865.47;6735866;29;20741;-81
2024/01/21 12:46:11;;;;;;;6.47;4.63;;;;;;;10.32;35.42;99883.31;6741582;29;20213;-81
2024/01/21 12:49:34;;;;;;;12.23;6.00;;;;;;;10.66;35.39;99873.84;6718703;29;20270;-82
2024/01/21 12:52:56;;;;;;;8.17;6.60;;;;;;;11.20;35.17;99861.91;6709555;29;20248;-83
2024/01/21 12:56:17;;;;;;;10.10;6.73;;;;;;;11.82;34.76;99847.06;6733191;29;20377;-82
2024/01/21 12:59:39;;;;;;;7.97;5.90;;;;;;;11.65;34.33;99833.94;6735769;29;20236;-83
2024/01/21 13:03:00;;;;;;;8.93;6.13;;;;;;;11.83;33.99;99840.63;6738477;29;20207;-83
2024/01/21 13:06:23;;;;;;;9.13;6.57;;;;;;;12.14;33.77;99829.56;6737697;29;20264;-83
2024/01/21 13:09:45;;;;;;;8.60;5.70;;;;;;;11.83;33.97;99805.50;6735510;29;20260;-83
2024/01/21 13:13:06;;;;;;;9.27;6.20;;;;;;;11.96;32.90;99815.63;6736730;29;20244;-81
2024/01/21 13:16:28;;;;;;;5.87;5.20;;;;;;;11.65;33.89;99801.50;6734996;29;20355;-83
2024/01/21 13:19:49;;;;;;;6.97;5.73;;;;;;;12.22;33.67;99797.84;6734003;29;20239;-83
2024/01/21 13:23:12;;;;;;;7.73;5.60;;;;;;;12.53;32.69;99789.44;6732761;29;20707;-83
2024/01/21 13:26:40;;;;;;;8.60;4.97;;;;;;;12.58;31.87;99790.50;6749116;29;20247;-83
2024/01/21 13:33:40;;;;;;;10.80;6.07;;;;;;;11.28;33.29;99791.63;6733399;29;20212;-81
2024/01/21 13:37:02;;;;;;;7.47;6.13;;;;;;;11.31;33.57;99804.75;6728231;29;20236;-81
2024/01/21 13:40:25;;;;;;;9.90;6.87;;;;;;;11.00;33.98;99800.53;6730483;29;20323;-82
2024/01/21 13:43:46;;;;;;;8.10;6.90;;;;;;;11.43;33.65;99800.56;6729075;29;20291;-81
2024/01/21 13:47:08;;;;;;;7.43;6.27;;;;;;;11.42;33.73;99796.19;6729742;29;20351;-81
2024/01/21 13:50:31;;;;;;;9.27;5.97;;;;;;;11.36;33.40;99794.25;6729850;29;20602;-81
2024/01/21 13:53:52;;;;;;;7.73;6.57;;;;;;;11.79;33.41;99814.16;6731229;29;20239;-82
2024/01/21 13:57:15;;;;;;;7.90;6.23;;;;;;;11.56;33.02;99800.75;6730605;29;20231;-81
2024/01/21 14:00:36;;;;;;;9.30;7.03;;;;;;;11.95;32.95;99787.78;6730848;29;20782;-82
2024/01/21 14:03:58;;;;;;;10.33;6.20;;;;;;;12.32;32.84;99805.66;6737577;29;20209;-82
2024/01/21 14:07:19;;;;;;;7.80;6.37;;;;;;;12.12;32.58;99805.44;6726681;29;21228;-83
2024/01/21 14:10:41;;;;;;;12.10;6.83;;;;;;;12.21;33.12;99798.06;6733615;29;20300;-83
2024/01/21 14:14:04;;;;;;;7.20;5.60;;;;;;;12.41;32.87;99809.91;6739135;29;20208;-83
2024/01/21 14:17:28;;;;;;;10.20;6.50;;;;;;;12.41;32.68;99826.16;6738710;29;20315;-82
2024/01/21 14:20:49;;;;;;;8.07;6.70;;;;;;;11.63;34.03;99836.00;6737267;29;20231;-83
2024/01/21 14:24:11;;;;;;;11.10;6.43;;;;;;;11.95;33.08;99811.25;6748543;29;20216;-83
2024/01/21 14:27:32;;;;;;;7.97;6.10;;;;;;;11.86;32.02;99832.13;6738928;29;20263;-82
2024/01/21 14:30:55;;;;;;;7.50;5.50;;;;;;;11.86;32.06;99834.03;6739375;29;20215;-81
2024/01/21 14:34:17;;;;;;;8.10;6.30;;;;;;;11.53;31.80;99843.50;6741614;29;20652;-84
2024/01/21 14:37:38;;;;;;;10.03;6.10;;;;;;;11.45;32.00;99825.50;6738691;29;20798;-82
2024/01/21 14:41:00;;;;;;;6.93;5.70;;;;;;;11.92;33.94;99830.56;6736486;29;20248;-81
2024/01/21 14:44:21;;;;;;;9.53;6.07;;;;;;;11.51;34.57;99822.06;6741267;29;21023;-81
2024/01/21 14:47:44;;;;;;;7.70;6.70;;;;;;;11.58;35.60;99838.38;6735068;29;20281;-80
2024/01/21 14:51:06;;;;;;;9.47;6.40;;;;;;;11.17;36.19;99826.34;6733799;29;20269;-83
2024/01/21 14:54:27;;;;;;;9.00;6.60;;;;;;;10.74;36.94;99824.38;6749113;29;20228;-82
2024/01/21 14:57:49;;;;;;;8.73;6.17;;;;;;;10.13;38.33;99838.81;6753314;29;20336;-81
2024/01/21 15:01:10;;;;;;;8.47;6.10;;;;;;;10.56;37.78;99840.03;6741301;29;20782;-82
2024/01/21 15:04:33;;;;;;;7.93;6.47;;;;;;;10.24;38.92;99822.22;6735741;29;20932;-83
2024/01/21 15:07:55;;;;;;;9.00;6.60;;;;;;;10.36;38.63;99828.03;6735899;29;20443;-81
2024/01/21 15:11:16;;;;;;;13.00;8.67;;;;;;;10.47;38.90;99822.22;6725376;29;20219;-82
2024/01/21 15:14:40;;;;;;;11.33;7.67;;;;;;;10.59;39.17;99828.88;6733373;29;20299;-86
2024/01/21 15:18:02;;;;;;;10.37;7.50;;;;;;;10.53;39.27;99833.16;6732830;29;20240;-81
2024/01/21 15:21:25;;;;;;;12.00;7.03;;;;;;;10.21;40.23;99844.13;6732401;29;20311;-81
2024/01/21 15:24:46;;;;;;;12.23;8.00;;;;;;;10.14;40.73;99848.56;6729368;29;20633;-81
2024/01/21 15:28:08;;;;;;;10.97;8.87;;;;;;;9.91;41.60;99842.25;6726328;29;20228;-80
2024/01/21 15:31:30;;;;;;;13.50;7.90;;;;;;;10.18;40.66;99839.13;6732499;29;20208;-82
2024/01/21 15:34:51;;;;;;;11.77;7.30;;;;;;;9.52;42.82;99851.31;6733290;29;20259;-81
2024/01/21 15:38:14;;;;;;;8.63;6.60;;;;;;;9.12;43.65;99854.09;6731708;29;20252;-81
2024/01/21 15:41:36;;;;;;;10.47;7.20;;;;;;;9.13;43.72;99840.50;6734947;29;20298;-82
2024/01/21 15:44:57;;;;;;;11.30;7.47;;;;;;;9.11;43.32;99830.91;6720931;29;20583;-82
2024/01/21 15:48:19;;;;;;;11.00;6.53;;;;;;;9.20;42.69;99833.41;6735626;29;20231;-82
2024/01/21 15:51:41;;;;;;;11.07;7.57;;;;;;;9.62;42.79;99846.59;6748920;29;20219;-83